Terminal Aerodrome Forecast
Issued by NWS North Platte, NE

Home | Current Version | Previous Version | Text Only | Print | Product List | Glossary On
Versions: 1 2 3 4 5 6 7 8 9 10 11 12 13 14 15 16 17 18 19 20 21 22 23 24 25 26 27 28 29 30 31 32 33
000
FTUS43 KLBF 012300 CCA
TAFVTN
TAF COR
KVTN 012332Z 0200/0224 VRB10G20KT P6SM -TSRA BKN080CB
     FM020200 32007KT P6SM SCT080 BKN120
     FM020600 26005KT P6SM SKC
     FM021500 21010KT P6SM SKC=

USA.gov is the U.S. government's official web portal to all federal, state and local government web resources and services.